createdAt,value
2023-04-18T00:02:10.607Z,96967.75
2023-04-18T00:04:38.807Z,96973.47
2023-04-18T00:07:06.940Z,96971.81
2023-04-18T00:09:35.155Z,96971.44
2023-04-18T00:12:04.910Z,96969.63
2023-04-18T00:14:34.137Z,96969.84
2023-04-18T00:17:02.865Z,96967.19
2023-04-18T00:19:31.332Z,96965.78
2023-04-18T00:21:59.847Z,96962.78
2023-04-18T00:24:27.868Z,96957.50
2023-04-18T00:26:57.069Z,96957.09
2023-04-18T00:29:26.482Z,96949.25
2023-04-18T00:31:54.631Z,96947.81
2023-04-18T00:34:24.141Z,96952.25
2023-04-18T00:36:54.814Z,96946.34
2023-04-18T00:39:23.035Z,96948.78
2023-04-18T00:41:50.993Z,96941.28
2023-04-18T00:44:19.173Z,96933.44
2023-04-18T00:46:48.542Z,96944.31
2023-04-18T00:49:16.915Z,96941.47
2023-04-18T00:51:45.591Z,96939.66
2023-04-18T00:54:14.138Z,96947.75
2023-04-18T00:56:42.529Z,96946.13
2023-04-18T00:59:14.675Z,96947.75
2023-04-18T01:01:43.574Z,96953.38
2023-04-18T01:04:13.306Z,96944.09
2023-04-18T01:06:43.998Z,96934.59
2023-04-18T01:09:16.023Z,96938.06
2023-04-18T01:11:46.090Z,96928.78
2023-04-18T01:14:14.657Z,96925.34
2023-04-18T01:16:44.019Z,96916.63
2023-04-18T01:19:19.137Z,96917.63
2023-04-18T01:21:47.425Z,96923.09
2023-04-18T01:24:18.402Z,96924.72
2023-04-18T01:26:48.451Z,96911.59
2023-04-18T01:29:16.686Z,96918.03
2023-04-18T01:31:44.815Z,96904.69
2023-04-18T01:34:17.754Z,96901.66
2023-04-18T01:36:46.687Z,96902.66
2023-04-18T01:39:18.300Z,96899.63
2023-04-18T01:41:46.892Z,96903.28
2023-04-18T01:44:15.046Z,96897.22
2023-04-18T01:46:43.231Z,96902.25
2023-04-18T01:49:11.300Z,96895.19
2023-04-18T01:51:39.832Z,96888.94
2023-04-18T01:54:07.844Z,96893.38
2023-04-18T01:56:37.204Z,96892.19
2023-04-18T01:59:05.269Z,96887.09
2023-04-18T02:01:33.320Z,96881.22
2023-04-18T02:04:01.436Z,96881.66
2023-04-18T02:06:29.641Z,96880.81
2023-04-18T02:08:57.630Z,96889.28
2023-04-18T02:11:26.465Z,96878.78
2023-04-18T02:13:55.834Z,96883.84
2023-04-18T02:16:23.897Z,96881.66
2023-04-18T02:18:52.845Z,96882.25
2023-04-18T02:21:21.858Z,96886.91
2023-04-18T02:23:50.980Z,96884.88
2023-04-18T02:26:19.096Z,96879.81
2023-04-18T02:28:47.271Z,96887.13
2023-04-18T02:31:16.859Z,96889.75
2023-04-18T02:33:46.886Z,96890.97
2023-04-18T02:36:15.126Z,96890.13
2023-04-18T02:38:44.849Z,96889.34
2023-04-18T02:41:15.335Z,96885.47
2023-04-18T02:43:43.620Z,96889.53
2023-04-18T02:46:11.885Z,96884.84
2023-04-18T02:48:41.886Z,96880.00
2023-04-18T02:51:11.462Z,96888.09
2023-04-18T02:53:40.271Z,96879.38
2023-04-18T02:56:09.005Z,96885.44
2023-04-18T02:58:57.043Z,96881.63
2023-04-18T03:01:40.999Z,96881.63
2023-04-18T03:04:14.008Z,96876.56
2023-04-18T03:06:53.265Z,96879.16
2023-04-18T03:09:21.353Z,96881.16
2023-04-18T03:11:55.702Z,96877.97
2023-04-18T03:14:27.422Z,96873.75
2023-04-18T03:16:57.010Z,96884.25
2023-04-18T03:19:31.841Z,96874.50
2023-04-18T03:22:07.325Z,96874.88
2023-04-18T03:24:38.214Z,96877.94
2023-04-18T03:27:08.180Z,96889.75
2023-04-18T03:29:38.658Z,96884.56
2023-04-18T03:32:07.007Z,96884.75
2023-04-18T03:34:36.381Z,96881.16
2023-04-18T03:37:07.405Z,96881.34
2023-04-18T03:39:40.974Z,96876.91
2023-04-18T03:42:09.412Z,96880.50
2023-04-18T03:44:37.690Z,96892.84
2023-04-18T03:47:05.898Z,96879.91
2023-04-18T03:49:38.978Z,96885.09
2023-04-18T03:52:07.140Z,96874.81
2023-04-18T03:54:35.294Z,96889.75
2023-04-18T03:57:05.263Z,96880.22
2023-04-18T03:59:36.503Z,96886.69
2023-04-18T04:02:04.828Z,96884.03
2023-04-18T04:04:33.193Z,96886.06
2023-04-18T04:07:02.738Z,96888.69
2023-04-18T04:09:30.996Z,96891.63
2023-04-18T04:11:59.062Z,96888.22
2023-04-18T04:14:28.794Z,96895.47
2023-04-18T04:16:56.920Z,96892.03
2023-04-18T04:19:25.254Z,96899.13
2023-04-18T04:22:04.872Z,96895.00
2023-04-18T04:24:33.860Z,96897.44
2023-04-18T04:27:03.685Z,96907.53
2023-04-18T04:29:57.486Z,96902.88
2023-04-18T04:32:27.485Z,96907.53
2023-04-18T04:34:56.265Z,96909.97
2023-04-18T04:37:26.062Z,96899.47
2023-04-18T04:40:09.405Z,96896.63
2023-04-18T04:42:53.904Z,96885.25
2023-04-18T04:45:27.988Z,96889.56
2023-04-18T04:47:56.875Z,96888.50
2023-04-18T04:50:25.574Z,96890.69
2023-04-18T04:52:55.028Z,96883.56
2023-04-18T04:55:23.142Z,96897.88
2023-04-18T04:57:51.695Z,96903.19
2023-04-18T05:00:33.762Z,96896.75
2023-04-18T05:03:02.265Z,96903.44
2023-04-18T05:05:31.136Z,96900.25
2023-04-18T05:08:00.551Z,96909.94
2023-04-18T05:10:28.980Z,96908.53
2023-04-18T05:12:57.354Z,96909.69
2023-04-18T05:15:25.657Z,96904.69
2023-04-18T05:17:53.889Z,96903.03
2023-04-18T05:20:22.286Z,96907.88
2023-04-18T05:22:50.485Z,96908.50
2023-04-18T05:25:20.033Z,96908.09
2023-04-18T05:27:48.062Z,96909.09
2023-04-18T05:30:16.272Z,96901.13
2023-04-18T05:32:44.620Z,96898.03
2023-04-18T05:35:12.788Z,96907.78
2023-04-18T05:37:40.881Z,96908.16
2023-04-18T05:40:10.738Z,96909.09
2023-04-18T05:42:40.351Z,96905.72
2023-04-18T05:45:09.883Z,96917.28
2023-04-18T05:47:37.932Z,96917.13
2023-04-18T05:50:07.728Z,96922.53
2023-04-18T05:52:35.869Z,96928.41
2023-04-18T05:55:04.100Z,96923.41
2023-04-18T05:57:32.439Z,96929.94
2023-04-18T06:00:01.986Z,96926.50
2023-04-18T06:02:40.915Z,96932.13
2023-04-18T06:05:10.730Z,96933.56
2023-04-18T06:07:39.102Z,96936.75
2023-04-18T06:10:11.120Z,96944.81
2023-04-18T06:12:39.239Z,96947.88
2023-04-18T06:15:11.108Z,96950.75
2023-04-18T06:17:39.445Z,96941.44
2023-04-18T06:20:08.928Z,96943.44
2023-04-18T06:22:37.049Z,96937.22
2023-04-18T06:25:05.905Z,96938.28
2023-04-18T06:27:33.985Z,96936.84
2023-04-18T06:30:02.102Z,96936.63
2023-04-18T06:32:31.604Z,96948.69
2023-04-18T06:34:59.777Z,96948.53
2023-04-18T06:37:28.005Z,96944.31
2023-04-18T06:39:56.116Z,96942.28
2023-04-18T06:42:24.227Z,96944.53
2023-04-18T06:44:52.347Z,96951.03
2023-04-18T06:47:20.424Z,96948.59
2023-04-18T06:49:49.909Z,96952.63
2023-04-18T06:52:18.067Z,96952.19
2023-04-18T06:54:46.249Z,96956.63
2023-04-18T06:57:14.330Z,96958.31
2023-04-18T06:59:42.514Z,96948.03
2023-04-18T07:02:10.742Z,96945.59
2023-04-18T07:04:39.224Z,96954.69
2023-04-18T07:07:08.701Z,96945.66
2023-04-18T07:09:36.839Z,96946.06
2023-04-18T07:12:05.229Z,96957.38
2023-04-18T07:14:34.317Z,96959.19
2023-04-18T07:17:03.003Z,96960.63
2023-04-18T07:19:31.217Z,96955.13
2023-04-18T07:21:59.351Z,96955.34
2023-04-18T07:24:28.756Z,96960.81
2023-04-18T07:26:56.906Z,96962.22
2023-04-18T07:29:25.201Z,96965.69
2023-04-18T07:31:53.325Z,96962.44
2023-04-18T07:34:22.247Z,96958.94
2023-04-18T07:36:50.630Z,96966.06
2023-04-18T07:39:18.849Z,96960.34
2023-04-18T07:41:48.263Z,96965.44
2023-04-18T07:44:16.518Z,96963.25
2023-04-18T07:46:44.767Z,96964.50
2023-04-18T07:49:13.167Z,96963.91
2023-04-18T07:51:41.548Z,96967.13
2023-04-18T07:54:11.034Z,96967.53
2023-04-18T07:56:39.311Z,96972.41
2023-04-18T07:59:08.724Z,96977.50
2023-04-18T08:01:38.100Z,96971.63
2023-04-18T08:04:06.813Z,96978.72
2023-04-18T08:06:35.653Z,96981.97
2023-04-18T08:09:05.866Z,96984.03
2023-04-18T08:11:34.996Z,96979.41
2023-04-18T08:14:03.421Z,96985.06
2023-04-18T08:16:33.200Z,96983.06
2023-04-18T08:19:01.309Z,96980.84
2023-04-18T08:21:29.596Z,96986.72
2023-04-18T08:23:57.742Z,96983.50
2023-04-18T08:26:26.036Z,96983.69
2023-04-18T08:28:54.159Z,96971.41
2023-04-18T08:31:22.368Z,96964.91
2023-04-18T08:33:51.838Z,96979.50
2023-04-18T08:36:20.045Z,96979.72
2023-04-18T08:38:48.197Z,96973.31
2023-04-18T08:41:21.836Z,96975.75
2023-04-18T08:43:50.072Z,96982.63
2023-04-18T08:46:19.076Z,96977.19
2023-04-18T08:48:52.536Z,96978.03
2023-04-18T08:51:21.539Z,96989.78
2023-04-18T08:53:50.658Z,96983.34
2023-04-18T08:56:22.372Z,96980.72
2023-04-18T08:58:50.777Z,96989.44
2023-04-18T09:01:18.937Z,96995.88
2023-04-18T09:03:47.662Z,96996.91
2023-04-18T09:06:18.964Z,97000.75
2023-04-18T09:08:59.036Z,97001.00
2023-04-18T09:11:31.972Z,96999.19
2023-04-18T09:14:00.323Z,96996.53
2023-04-18T09:16:29.339Z,96994.53
2023-04-18T09:19:13.141Z,96993.50
2023-04-18T09:21:46.233Z,96996.75
2023-04-18T09:24:24.892Z,97001.41
2023-04-18T09:26:55.838Z,96996.16
2023-04-18T09:29:42.185Z,96999.19
2023-04-18T09:32:12.908Z,97009.53
2023-04-18T09:34:43.421Z,96998.00
2023-04-18T09:37:14.864Z,96995.78
2023-04-18T09:39:45.260Z,96994.16
2023-04-18T09:42:13.848Z,96997.00
2023-04-18T09:45:04.741Z,96995.00
2023-04-18T09:47:35.030Z,96998.03
2023-04-18T09:50:04.537Z,97000.47
2023-04-18T09:52:36.897Z,96999.44
2023-04-18T09:55:09.176Z,96994.38
2023-04-18T09:57:40.630Z,96992.97
2023-04-18T10:00:17.241Z,96996.81
2023-04-18T10:02:59.265Z,96992.38
2023-04-18T10:05:31.792Z,97000.25
2023-04-18T10:08:01.516Z,97000.66
2023-04-18T10:10:30.303Z,97000.25
2023-04-18T10:13:00.670Z,96996.63
2023-04-18T10:15:31.953Z,96998.25
2023-04-18T10:18:05.684Z,96992.16
2023-04-18T10:20:35.774Z,96993.38
2023-04-18T10:23:37.510Z,96991.75
2023-04-18T10:26:06.289Z,96988.13
2023-04-18T10:28:56.677Z,96986.09
2023-04-18T10:31:27.015Z,96985.88
2023-04-18T10:34:05.689Z,96986.47
2023-04-18T10:36:34.681Z,96988.50
2023-04-18T10:39:23.115Z,96984.66
2023-04-18T10:41:52.358Z,96983.22
2023-04-18T10:44:24.225Z,96983.22
2023-04-18T10:47:32.229Z,96986.88
2023-04-18T10:50:06.340Z,96992.13
2023-04-18T10:52:35.812Z,96986.03
2023-04-18T10:55:25.411Z,96986.22
2023-04-18T10:57:56.317Z,96980.72
2023-04-18T11:00:25.972Z,96974.81
2023-04-18T11:02:57.669Z,96973.56
2023-04-18T11:05:28.967Z,96970.50
2023-04-18T11:07:57.219Z,96963.97
2023-04-18T11:10:27.937Z,96961.53
2023-04-18T11:12:56.612Z,96963.13
2023-04-18T11:15:27.147Z,96959.44
2023-04-18T11:17:59.299Z,96954.94
2023-04-18T11:20:28.204Z,96955.13
2023-04-18T11:22:58.422Z,96959.00
2023-04-18T11:25:30.720Z,96954.13
2023-04-18T11:28:01.160Z,96950.88
2023-04-18T11:30:36.888Z,96954.38
2023-04-18T11:33:08.353Z,96955.00
2023-04-18T11:35:39.675Z,96954.75
2023-04-18T11:38:08.334Z,96953.34
2023-04-18T11:40:38.941Z,96953.53
2023-04-18T11:43:08.503Z,96954.94
2023-04-18T11:45:36.809Z,96957.84
2023-04-18T11:48:06.111Z,96955.56
2023-04-18T11:50:38.209Z,96951.69
2023-04-18T11:53:06.413Z,96951.66
2023-04-18T11:55:34.596Z,96958.75
2023-04-18T11:58:04.336Z,96959.91
2023-04-18T12:00:35.373Z,96964.59
2023-04-18T12:03:05.973Z,96959.88
2023-04-18T12:05:36.117Z,96962.97
2023-04-18T12:08:09.977Z,96962.38
2023-04-18T12:10:39.487Z,96963.41
2023-04-18T12:13:09.728Z,96952.88
2023-04-18T12:15:41.578Z,96964.22
2023-04-18T12:18:10.288Z,96961.56
2023-04-18T12:20:46.628Z,96965.56
2023-04-18T12:23:31.758Z,96960.34
2023-04-18T12:26:01.608Z,96963.34
2023-04-18T12:28:31.579Z,96955.00
2023-04-18T12:31:00.222Z,96963.31
2023-04-18T12:33:28.657Z,96954.16
2023-04-18T12:35:57.365Z,96949.44
2023-04-18T12:38:25.711Z,96948.41
2023-04-18T12:40:54.128Z,96950.16
2023-04-18T12:43:22.272Z,96947.16
2023-04-18T12:45:51.886Z,96953.03
2023-04-18T12:48:20.118Z,96945.28
2023-04-18T12:50:48.230Z,96954.09
2023-04-18T12:53:16.883Z,96950.28
2023-04-18T12:55:45.023Z,96940.94
2023-04-18T12:58:18.334Z,96940.84
2023-04-18T13:00:46.659Z,96940.88
2023-04-18T13:03:16.286Z,96946.75
2023-04-18T13:05:44.609Z,96942.94
2023-04-18T13:08:16.909Z,96937.38
2023-04-18T13:10:46.183Z,96936.84
2023-04-18T13:13:14.605Z,96937.97
2023-04-18T13:15:42.759Z,96938.75
2023-04-18T13:18:10.922Z,96929.41
2023-04-18T13:20:40.649Z,96926.22
2023-04-18T13:23:08.714Z,96934.75
2023-04-18T13:25:36.787Z,96929.94
2023-04-18T13:28:05.165Z,96924.63
2023-04-18T13:30:35.573Z,96924.97
2023-04-18T13:33:03.791Z,96931.31
2023-04-18T13:35:32.055Z,96934.91
2023-04-18T13:38:01.574Z,96925.91
2023-04-18T13:40:29.752Z,96921.88
2023-04-18T13:42:57.888Z,96929.28
2023-04-18T13:45:26.101Z,96933.91
2023-04-18T13:47:54.283Z,96933.31
2023-04-18T13:50:23.102Z,96929.56
2023-04-18T13:52:51.850Z,96926.75
2023-04-18T13:55:22.958Z,96928.03
2023-04-18T13:58:16.944Z,96929.03
2023-04-18T14:00:44.994Z,96931.38
2023-04-18T14:03:13.183Z,96931.19
2023-04-18T14:05:41.299Z,96929.22
2023-04-18T14:08:14.236Z,96935.25
2023-04-18T14:10:43.686Z,96933.63
2023-04-18T14:13:11.721Z,96938.09
2023-04-18T14:15:45.121Z,96937.94
2023-04-18T14:18:13.221Z,96932.16
2023-04-18T14:20:41.565Z,96939.66
2023-04-18T14:23:09.695Z,96930.53
2023-04-18T14:25:37.932Z,96941.94
2023-04-18T14:28:09.794Z,96942.25
2023-04-18T14:30:39.036Z,96943.91
2023-04-18T14:33:09.158Z,96939.66
2023-04-18T14:35:37.512Z,96938.22
2023-04-18T14:38:05.696Z,96939.72
2023-04-18T14:40:34.183Z,96942.25
2023-04-18T14:43:02.477Z,96943.41
2023-04-18T14:45:33.831Z,96948.88
2023-04-18T14:48:02.077Z,96944.34
2023-04-18T14:50:30.315Z,96941.59
2023-04-18T14:52:58.448Z,96941.34
2023-04-18T14:55:27.289Z,96942.72
2023-04-18T14:57:55.448Z,96938.47
2023-04-18T15:00:23.648Z,96940.22
2023-04-18T15:02:53.580Z,96939.19
2023-04-18T15:05:24.437Z,96948.50
2023-04-18T15:07:52.711Z,96943.28
2023-04-18T15:10:22.416Z,96941.22
2023-04-18T15:12:51.142Z,96946.06
2023-04-18T15:15:20.810Z,96944.81
2023-04-18T15:17:49.284Z,96944.47
2023-04-18T15:20:18.785Z,96943.00
2023-04-18T15:22:47.853Z,96942.84
2023-04-18T15:25:17.102Z,96941.38
2023-04-18T15:27:45.220Z,96947.69
2023-04-18T15:30:14.417Z,96944.59
2023-04-18T15:32:42.536Z,96943.59
2023-04-18T15:35:11.314Z,96944.47
2023-04-18T15:37:41.488Z,96946.25
2023-04-18T15:40:16.034Z,96949.50
2023-04-18T15:42:44.530Z,96950.53
2023-04-18T15:45:13.206Z,96941.22
2023-04-18T15:47:41.692Z,96945.84
2023-04-18T15:50:11.022Z,96950.75
2023-04-18T15:52:41.579Z,96947.91
2023-04-18T15:55:12.184Z,96951.22
2023-04-18T15:57:40.595Z,96955.94
2023-04-18T16:00:15.857Z,96953.06
2023-04-18T16:02:45.143Z,96954.97
2023-04-18T16:05:13.847Z,96960.25
2023-04-18T16:07:43.951Z,96957.97
2023-04-18T16:10:12.875Z,96961.66
2023-04-18T16:12:41.801Z,96957.53
2023-04-18T16:15:11.747Z,96957.22
2023-04-18T16:17:40.139Z,96957.22
2023-04-18T16:20:09.517Z,96951.66
2023-04-18T16:22:38.446Z,96962.81
2023-04-18T16:25:10.205Z,96966.78
2023-04-18T16:27:38.901Z,96963.16
2023-04-18T16:30:09.967Z,96971.56
2023-04-18T16:32:39.148Z,96963.41
2023-04-18T16:35:10.159Z,96965.31
2023-04-18T16:37:38.888Z,96961.06
2023-04-18T16:40:10.152Z,96969.81
2023-04-18T16:42:38.427Z,96973.09
2023-04-18T16:45:07.675Z,96963.84
2023-04-18T16:47:35.740Z,96969.25
2023-04-18T16:50:03.919Z,96968.84
2023-04-18T16:52:32.036Z,96972.13
2023-04-18T16:55:00.127Z,96972.47
2023-04-18T16:57:29.576Z,96977.25
2023-04-18T16:59:58.207Z,96973.94
2023-04-18T17:02:26.486Z,96972.94
2023-04-18T17:04:54.703Z,96981.44
2023-04-18T17:07:22.790Z,96983.53
2023-04-18T17:09:50.989Z,96979.50
2023-04-18T17:12:19.104Z,96988.81
2023-04-18T17:14:48.629Z,96984.97
2023-04-18T17:17:16.780Z,96987.78
2023-04-18T17:19:45.942Z,96981.66
2023-04-18T17:22:14.164Z,96987.34
2023-04-18T17:24:42.243Z,96981.44
2023-04-18T17:27:10.429Z,96983.53
2023-04-18T17:29:38.549Z,96985.97
2023-04-18T17:32:08.364Z,96988.84
2023-04-18T17:34:36.484Z,96990.03
2023-04-18T17:37:05.365Z,96988.81
2023-04-18T17:39:33.428Z,96991.00
2023-04-18T17:42:02.103Z,96996.53
2023-04-18T17:44:30.955Z,96990.84
2023-04-18T17:46:59.902Z,96993.69
2023-04-18T17:49:34.450Z,97002.25
2023-04-18T17:52:03.546Z,97006.50
2023-04-18T17:54:31.937Z,97001.00
2023-04-18T17:57:01.840Z,96997.97
2023-04-18T17:59:30.245Z,97004.06
2023-04-18T18:02:01.789Z,97008.78
2023-04-18T18:04:31.646Z,97015.28
2023-04-18T18:07:00.141Z,97014.50
2023-04-18T18:09:28.664Z,97013.25
2023-04-18T18:11:56.913Z,97012.22
2023-04-18T18:14:25.082Z,97011.25
2023-04-18T18:16:53.365Z,97014.09
2023-04-18T18:19:21.569Z,97015.78
2023-04-18T18:21:51.206Z,97017.97
2023-04-18T18:24:20.104Z,97023.94
2023-04-18T18:26:50.268Z,97025.91
2023-04-18T18:29:19.913Z,97025.97
2023-04-18T18:31:48.071Z,97027.25
2023-04-18T18:34:16.851Z,97028.09
2023-04-18T18:36:44.948Z,97029.28
2023-04-18T18:39:16.610Z,97035.88
2023-04-18T18:41:45.091Z,97035.50
2023-04-18T18:44:13.875Z,97051.56
2023-04-18T18:46:43.239Z,97046.09
2023-04-18T18:49:11.624Z,97049.72
2023-04-18T18:51:41.107Z,97055.03
2023-04-18T18:54:09.160Z,97053.44
2023-04-18T18:56:39.927Z,97057.47
2023-04-18T18:59:08.077Z,97050.44
2023-04-18T19:01:36.731Z,97057.56
2023-04-18T19:04:05.254Z,97064.06
2023-04-18T19:06:33.382Z,97062.50
2023-04-18T19:09:01.486Z,97063.38
2023-04-18T19:11:29.595Z,97070.66
2023-04-18T19:13:59.007Z,97069.84
2023-04-18T19:16:27.124Z,97081.00
2023-04-18T19:18:55.187Z,97073.06
2023-04-18T19:21:23.453Z,97074.75
2023-04-18T19:23:51.553Z,97076.34
2023-04-18T19:26:19.746Z,97073.91
2023-04-18T19:28:47.896Z,97085.72
2023-04-18T19:31:17.332Z,97080.84
2023-04-18T19:33:46.024Z,97082.91
2023-04-18T19:36:14.117Z,97078.22
2023-04-18T19:38:42.626Z,97083.72
2023-04-18T19:41:10.713Z,97080.88
2023-04-18T19:43:40.704Z,97080.47
2023-04-18T19:46:08.766Z,97083.38
2023-04-18T19:48:38.162Z,97084.38
2023-04-18T19:51:06.287Z,97088.84
2023-04-18T19:53:35.814Z,97087.81
2023-04-18T19:56:04.045Z,97085.38
2023-04-18T19:58:39.808Z,97083.75
2023-04-18T20:01:09.910Z,97085.59
2023-04-18T20:03:39.972Z,97090.88
2023-04-18T20:06:08.906Z,97092.28
2023-04-18T20:08:41.718Z,97097.78
2023-04-18T20:11:11.819Z,97095.94
2023-04-18T20:13:40.227Z,97099.38
2023-04-18T20:16:10.914Z,97101.03
2023-04-18T20:18:42.286Z,97097.13
2023-04-18T20:21:11.390Z,97092.28
2023-04-18T20:23:41.760Z,97095.94
2023-04-18T20:26:10.242Z,97102.00
2023-04-18T20:28:38.611Z,97098.97
2023-04-18T20:31:07.097Z,97099.78
2023-04-18T20:33:37.828Z,97094.50
2023-04-18T20:36:08.170Z,97091.66
2023-04-18T20:38:36.836Z,97097.16
2023-04-18T20:41:04.945Z,97097.56
2023-04-18T20:43:36.512Z,97092.28
2023-04-18T20:46:04.840Z,97097.56
2023-04-18T20:48:32.876Z,97100.22
2023-04-18T20:51:01.123Z,97102.63
2023-04-18T20:53:30.574Z,97102.03
2023-04-18T20:55:59.236Z,97105.28
2023-04-18T20:58:27.352Z,97106.28
2023-04-18T21:00:55.432Z,97105.69
2023-04-18T21:03:23.885Z,97103.47
2023-04-18T21:05:51.985Z,97099.22
2023-04-18T21:08:20.264Z,97105.50
2023-04-18T21:10:49.641Z,97102.66
2023-04-18T21:13:17.780Z,97111.59
2023-04-18T21:15:46.029Z,97111.78
2023-04-18T21:18:14.319Z,97105.09
2023-04-18T21:20:42.349Z,97112.63
2023-04-18T21:23:10.413Z,97105.31
2023-04-18T21:25:38.875Z,97101.44
2023-04-18T21:28:08.824Z,97104.50
2023-04-18T21:30:36.910Z,97107.72
2023-04-18T21:33:05.189Z,97107.94
2023-04-18T21:35:33.355Z,97113.81
2023-04-18T21:38:01.389Z,97107.94
2023-04-18T21:40:30.745Z,97113.00
2023-04-18T21:42:58.825Z,97111.56
2023-04-18T21:45:28.357Z,97111.78
2023-04-18T21:47:56.460Z,97108.75
2023-04-18T21:50:24.957Z,97106.91
2023-04-18T21:52:53.057Z,97111.78
2023-04-18T21:55:21.250Z,97106.50
2023-04-18T21:57:49.350Z,97101.84
2023-04-18T22:00:18.396Z,97105.31
2023-04-18T22:02:48.053Z,97108.16
2023-04-18T22:05:16.881Z,97104.28
2023-04-18T22:07:56.803Z,97101.63
2023-04-18T22:10:25.988Z,97108.56
2023-04-18T22:12:54.442Z,97108.97
2023-04-18T22:15:22.569Z,97107.94
2023-04-18T22:17:52.057Z,97102.28
2023-04-18T22:20:20.213Z,97100.88
2023-04-18T22:22:48.437Z,97106.13
2023-04-18T22:25:16.745Z,97099.03
2023-04-18T22:27:46.449Z,97099.84
2023-04-18T22:30:15.837Z,97097.00
2023-04-18T22:33:10.028Z,97105.91
2023-04-18T22:35:38.305Z,97107.34
2023-04-18T22:38:06.432Z,97100.63
2023-04-18T22:40:34.517Z,97103.91
2023-04-18T22:43:02.596Z,97107.34
2023-04-18T22:45:30.739Z,97103.28
2023-04-18T22:47:58.847Z,97100.25
2023-04-18T22:50:30.112Z,97107.56
2023-04-18T22:52:58.197Z,97105.91
2023-04-18T22:55:26.353Z,97110.22
2023-04-18T22:57:54.391Z,97112.41
2023-04-18T23:00:22.497Z,97112.41
2023-04-18T23:02:51.743Z,97115.47
2023-04-18T23:05:20.106Z,97118.53
2023-04-18T23:07:49.515Z,97108.16
2023-04-18T23:10:17.607Z,97108.56
2023-04-18T23:12:45.670Z,97111.84
2023-04-18T23:15:13.760Z,97118.09
2023-04-18T23:17:41.907Z,97121.34
2023-04-18T23:20:12.356Z,97117.91
2023-04-18T23:22:41.388Z,97111.63
2023-04-18T23:25:11.134Z,97109.00
2023-04-18T23:27:39.255Z,97112.03
2023-04-18T23:30:32.723Z,97106.75
2023-04-18T23:33:00.790Z,97114.06
2023-04-18T23:35:28.845Z,97105.31
2023-04-18T23:37:58.778Z,97109.41
2023-04-18T23:40:28.180Z,97109.16
2023-04-18T23:42:56.290Z,97110.59
2023-04-18T23:45:24.707Z,97107.38
2023-04-18T23:47:53.090Z,97110.59
2023-04-18T23:50:21.272Z,97108.38
2023-04-18T23:52:49.282Z,97111.41
2023-04-18T23:55:17.763Z,97107.56
2023-04-18T23:57:47.119Z,97098.63
